Time;durP1;ratioP1;P1;durP2;ratioP2;P2;SDS_P1;SDS_P2;PMS_P1;PMS_P2;Temp;Humidity;BMP_temperature;BMP_pressure;BME280_temperature;BME280_humidity;BME280_pressure;Samples;Min_cycle;Max_cycle;Signal;HPM_P1;HPM_P2
2023/11/06 00:01:42;;;;;;;2.92;1.23;;;11.30;99.90;;;;;;5119346;28;20014;-89
2023/11/06 00:04:09;;;;;;;4.35;1.15;;;11.20;99.90;;;;;;5119406;28;20099;-89
2023/11/06 00:06:34;;;;;;;7.20;1.52;;;11.30;99.90;;;;;;5118837;28;20063;-90
2023/11/06 00:09:05;;;;;;;5.47;1.23;;;11.30;99.90;;;;;;5102915;28;20027;-88
2023/11/06 00:11:31;;;;;;;2.72;1.08;;;11.30;99.90;;;;;;5095983;28;20031;-90
2023/11/06 00:13:57;;;;;;;5.35;1.70;;;11.30;99.90;;;;;;5087332;28;20372;-88
2023/11/06 00:16:22;;;;;;;4.35;1.50;;;11.30;99.90;;;;;;5087283;28;20024;-88
2023/11/06 00:18:50;;;;;;;3.55;1.27;;;11.30;99.90;;;;;;5094256;28;20032;-88
2023/11/06 00:21:17;;;;;;;3.13;1.52;;;11.30;99.90;;;;;;5077843;28;20036;-87
2023/11/06 00:23:44;;;;;;;2.53;1.13;;;11.20;99.90;;;;;;5094232;28;20027;-88
2023/11/06 00:26:18;;;;;;;2.20;1.30;;;11.20;99.90;;;;;;5078038;28;20050;-87
2023/11/06 00:28:44;;;;;;;2.58;1.25;;;11.20;99.90;;;;;;5077992;28;20036;-87
2023/11/06 00:31:13;;;;;;;3.17;1.13;;;11.20;99.90;;;;;;5094369;28;20125;-88
2023/11/06 00:33:41;;;;;;;5.20;1.35;;;11.30;99.90;;;;;;5058854;28;20064;-88
2023/11/06 00:36:20;;;;;;;2.92;1.10;;;11.20;99.90;;;;;;5064040;28;20433;-88
2023/11/06 00:38:46;;;;;;;2.38;1.00;;;11.20;99.90;;;;;;5084676;28;20020;-88
2023/11/06 00:41:14;;;;;;;3.63;1.02;;;11.20;99.90;;;;;;5095403;28;20482;-87
2023/11/06 00:43:40;;;;;;;2.47;1.10;;;11.30;99.90;;;;;;5094970;28;20030;-87
2023/11/06 00:46:05;;;;;;;5.18;1.40;;;11.30;99.90;;;;;;5093546;28;20020;-88
2023/11/06 00:48:31;;;;;;;6.40;1.60;;;11.20;99.90;;;;;;5063176;28;20137;-87
2023/11/06 00:50:57;;;;;;;3.13;1.30;;;11.20;99.90;;;;;;5093746;28;20028;-88
2023/11/06 00:53:22;;;;;;;4.95;1.25;;;11.30;99.90;;;;;;5094312;28;20099;-88
2023/11/06 00:55:50;;;;;;;3.17;1.23;;;11.30;99.90;;;;;;5077025;28;20127;-88
2023/11/06 00:58:16;;;;;;;3.47;1.20;;;11.30;99.90;;;;;;5081052;28;20028;-87
2023/11/06 01:00:42;;;;;;;3.67;1.08;;;11.30;99.90;;;;;;5080953;28;20086;-88
2023/11/06 01:03:08;;;;;;;5.05;1.23;;;11.30;99.90;;;;;;5078048;28;20123;-89
2023/11/06 01:05:34;;;;;;;3.25;1.30;;;11.30;99.90;;;;;;5073522;28;20088;-88
2023/11/06 01:08:04;;;;;;;2.55;1.17;;;11.30;99.90;;;;;;5073240;28;20025;-88
2023/11/06 01:10:30;;;;;;;3.42;1.15;;;11.30;99.90;;;;;;5074368;28;20024;-87
2023/11/06 01:13:03;;;;;;;3.53;1.30;;;11.30;99.90;;;;;;5093420;28;20020;-88
2023/11/06 01:15:31;;;;;;;2.63;0.85;;;11.20;99.90;;;;;;5089145;28;20357;-88
2023/11/06 01:17:58;;;;;;;2.30;0.90;;;11.20;99.90;;;;;;5081920;28;20024;-88
2023/11/06 01:20:26;;;;;;;1.52;0.90;;;11.20;99.90;;;;;;5079064;28;20078;-87
2023/11/06 01:22:52;;;;;;;1.48;0.85;;;11.20;99.90;;;;;;5093589;28;20028;-88
2023/11/06 01:25:18;;;;;;;2.20;0.88;;;11.20;99.90;;;;;;5094189;28;20020;-87
2023/11/06 01:27:44;;;;;;;1.60;0.80;;;11.20;99.90;;;;;;5093447;28;20032;-87
2023/11/06 01:30:12;;;;;;;1.33;0.70;;;11.20;99.90;;;;;;5084111;28;20472;-88
2023/11/06 01:32:39;;;;;;;1.88;0.60;;;11.20;99.90;;;;;;5081252;28;20020;-87
2023/11/06 01:35:05;;;;;;;1.58;0.95;;;11.20;99.90;;;;;;5095081;28;20055;-87
2023/11/06 01:37:31;;;;;;;1.67;0.68;;;11.20;99.90;;;;;;5117660;28;20012;-87
2023/11/06 01:39:57;;;;;;;1.27;0.73;;;11.10;99.90;;;;;;5100609;28;20008;-88
2023/11/06 01:42:22;;;;;;;3.25;0.93;;;11.20;99.90;;;;;;5093051;28;20536;-87
2023/11/06 01:44:48;;;;;;;1.38;0.57;;;11.20;99.90;;;;;;5094140;28;20055;-88
2023/11/06 01:47:14;;;;;;;2.00;0.75;;;11.20;99.90;;;;;;5089846;28;20017;-88
2023/11/06 01:49:41;;;;;;;1.35;0.70;;;11.10;99.90;;;;;;5089790;28;20095;-88
2023/11/06 01:52:15;;;;;;;2.17;0.55;;;11.20;99.90;;;;;;5073975;28;20032;-87
2023/11/06 01:54:41;;;;;;;2.05;0.55;;;11.20;99.90;;;;;;5090115;28;20075;-88
2023/11/06 01:57:07;;;;;;;0.73;0.47;;;11.20;99.90;;;;;;5080056;28;20372;-88
2023/11/06 01:59:33;;;;;;;2.63;0.60;;;11.20;99.90;;;;;;5057432;28;20025;-87
2023/11/06 02:02:05;;;;;;;1.60;0.70;;;11.20;99.90;;;;;;5084398;28;20036;-87
2023/11/06 02:04:32;;;;;;;1.50;0.70;;;11.10;99.90;;;;;;5094245;28;20444;-87
2023/11/06 02:06:58;;;;;;;1.05;0.50;;;11.10;99.90;;;;;;5093715;28;20126;-88
2023/11/06 02:09:27;;;;;;;2.97;1.08;;;11.10;99.90;;;;;;5094044;28;20028;-88
2023/11/06 02:11:53;;;;;;;2.03;0.85;;;11.10;99.90;;;;;;5093743;28;20040;-88
2023/11/06 02:14:22;;;;;;;2.92;1.10;;;11.10;99.90;;;;;;5076155;28;20201;-87
2023/11/06 02:16:48;;;;;;;1.90;0.80;;;11.00;99.90;;;;;;5093623;28;20103;-87
2023/11/06 02:19:15;;;;;;;2.92;0.95;;;11.10;99.90;;;;;;5092726;28;20071;-88
2023/11/06 02:21:41;;;;;;;3.58;1.20;;;11.10;99.90;;;;;;5093464;28;20024;-88
2023/11/06 02:24:15;;;;;;;2.47;1.70;;;11.10;99.90;;;;;;5075613;28;20035;-87
2023/11/06 02:26:42;;;;;;;1.88;1.30;;;11.10;99.90;;;;;;5080872;28;20028;-88
2023/11/06 02:29:08;;;;;;;3.28;1.23;;;11.10;99.90;;;;;;5089997;28;20028;-87
2023/11/06 02:31:34;;;;;;;2.80;1.38;;;11.10;99.90;;;;;;5097809;28;20085;-87
2023/11/06 02:34:02;;;;;;;1.80;1.10;;;11.10;99.90;;;;;;5079471;28;20127;-89
2023/11/06 02:36:28;;;;;;;2.67;1.38;;;11.10;99.90;;;;;;5097728;28;20051;-88
2023/11/06 02:38:54;;;;;;;2.58;1.23;;;11.10;99.90;;;;;;5067737;28;20025;-88
2023/11/06 02:41:19;;;;;;;3.50;1.10;;;11.20;99.90;;;;;;5079922;28;20016;-88
2023/11/06 02:43:45;;;;;;;3.53;1.63;;;11.10;99.90;;;;;;5096482;28;20070;-88
2023/11/06 02:46:11;;;;;;;3.33;1.27;;;11.20;99.90;;;;;;5093761;28;20154;-88
2023/11/06 02:48:36;;;;;;;3.10;1.15;;;11.10;99.90;;;;;;5075622;28;20131;-87
2023/11/06 02:51:02;;;;;;;3.97;1.52;;;11.10;99.90;;;;;;5081900;28;20407;-87
2023/11/06 02:53:28;;;;;;;2.35;1.25;;;11.20;99.90;;;;;;5059644;28;20465;-87
2023/11/06 02:55:56;;;;;;;2.13;1.33;;;11.20;99.90;;;;;;5089520;28;20028;-89
2023/11/06 02:58:22;;;;;;;1.83;1.38;;;11.10;99.90;;;;;;5079675;28;20550;-89
2023/11/06 03:00:48;;;;;;;5.25;1.85;;;11.20;99.90;;;;;;5079348;28;20063;-87
2023/11/06 03:03:13;;;;;;;5.15;1.63;;;11.20;99.90;;;;;;5079944;28;20110;-88
2023/11/06 03:05:39;;;;;;;3.45;1.63;;;11.20;99.90;;;;;;5081945;28;20029;-88
2023/11/06 03:08:05;;;;;;;3.00;1.33;;;11.10;99.90;;;;;;5110179;28;20021;-87
2023/11/06 03:10:33;;;;;;;4.68;1.55;;;11.10;99.90;;;;;;5100123;28;20032;-89
2023/11/06 03:12:59;;;;;;;3.97;1.80;;;11.10;99.90;;;;;;5099966;28;20013;-89
2023/11/06 03:15:27;;;;;;;4.93;1.55;;;11.10;99.90;;;;;;5106221;28;20008;-88
2023/11/06 03:17:53;;;;;;;4.22;1.55;;;11.10;99.90;;;;;;5098890;28;20447;-88
2023/11/06 03:20:19;;;;;;;4.30;1.40;;;11.10;99.90;;;;;;5096319;28;20031;-87
2023/11/06 03:22:44;;;;;;;2.63;1.50;;;11.10;99.90;;;;;;5079173;28;20051;-88
2023/11/06 03:25:10;;;;;;;3.35;1.17;;;11.10;99.90;;;;;;5092978;28;20056;-89
2023/11/06 03:27:36;;;;;;;4.80;1.95;;;11.10;99.90;;;;;;5079314;28;20099;-87
2023/11/06 03:30:04;;;;;;;2.55;1.30;;;11.10;99.90;;;;;;5075002;28;20468;-87
2023/11/06 03:32:30;;;;;;;3.25;1.27;;;11.00;99.90;;;;;;5070528;28;20427;-87
2023/11/06 03:34:58;;;;;;;4.68;1.10;;;11.00;99.90;;;;;;5095428;28;20032;-88
2023/11/06 03:37:26;;;;;;;2.53;0.98;;;11.00;99.90;;;;;;5095518;28;20024;-87
2023/11/06 03:39:57;;;;;;;4.15;1.65;;;11.00;99.90;;;;;;5095614;28;20024;-87
2023/11/06 03:42:22;;;;;;;1.67;0.85;;;11.10;99.90;;;;;;5093566;28;20035;-87
2023/11/06 03:44:48;;;;;;;2.45;1.10;;;11.00;99.90;;;;;;5095309;28;20020;-87
2023/11/06 03:47:14;;;;;;;3.65;1.30;;;11.10;99.90;;;;;;5093390;28;20024;-87
2023/11/06 03:49:43;;;;;;;3.92;1.20;;;11.00;99.90;;;;;;5094376;28;20056;-87
2023/11/06 03:52:11;;;;;;;4.30;1.33;;;11.00;99.90;;;;;;5094987;28;20484;-87
2023/11/06 03:54:40;;;;;;;2.72;1.23;;;11.00;99.90;;;;;;5095978;28;20023;-87
2023/11/06 03:57:06;;;;;;;4.28;1.15;;;11.10;99.90;;;;;;5092597;28;20107;-86
2023/11/06 03:59:32;;;;;;;3.83;1.20;;;11.10;99.90;;;;;;5058207;28;20190;-87
2023/11/06 04:01:57;;;;;;;2.25;0.85;;;11.10;99.90;;;;;;5091304;28;20160;-88
2023/11/06 04:04:25;;;;;;;3.47;1.20;;;11.10;99.90;;;;;;5077901;28;20054;-88
2023/11/06 04:06:51;;;;;;;3.05;0.93;;;11.00;99.90;;;;;;5094691;28;20103;-88
2023/11/06 04:09:17;;;;;;;2.83;1.02;;;11.00;99.90;;;;;;5095575;28;20077;-88
2023/11/06 04:11:42;;;;;;;3.30;0.90;;;11.10;99.90;;;;;;5090875;28;20060;-87
2023/11/06 04:14:08;;;;;;;4.05;1.10;;;11.00;99.90;;;;;;5077874;28;20062;-88
2023/11/06 04:16:34;;;;;;;2.05;0.80;;;11.00;99.90;;;;;;5094919;28;20020;-88
2023/11/06 04:18:59;;;;;;;2.80;1.15;;;10.90;99.90;;;;;;5094610;28;20028;-90
2023/11/06 04:21:28;;;;;;;2.42;0.70;;;10.90;99.90;;;;;;5096018;28;20035;-87
2023/11/06 04:23:54;;;;;;;2.30;0.77;;;10.90;99.90;;;;;;5075898;28;20118;-88
2023/11/06 04:26:20;;;;;;;1.88;0.88;;;10.90;99.90;;;;;;5071479;28;20032;-88
2023/11/06 04:28:52;;;;;;;4.28;0.90;;;10.90;99.90;;;;;;5094373;28;20402;-87
2023/11/06 04:31:17;;;;;;;2.03;0.93;;;10.90;99.90;;;;;;5094061;28;20039;-87
2023/11/06 04:33:43;;;;;;;2.30;1.00;;;10.80;99.90;;;;;;5094743;28;20032;-87
2023/11/06 04:36:09;;;;;;;3.05;1.02;;;10.90;99.90;;;;;;5095740;28;20028;-88
2023/11/06 04:38:35;;;;;;;3.25;1.00;;;10.90;99.90;;;;;;5074513;28;20016;-88
2023/11/06 04:41:03;;;;;;;2.45;0.90;;;10.80;99.90;;;;;;5080804;28;20032;-88
2023/11/06 04:43:29;;;;;;;3.20;0.98;;;10.90;99.90;;;;;;5114585;28;20096;-88
2023/11/06 04:45:54;;;;;;;1.88;0.90;;;10.80;99.90;;;;;;5097730;28;20016;-87
2023/11/06 04:48:20;;;;;;;2.38;0.80;;;10.80;99.90;;;;;;5103999;28;20036;-88
2023/11/06 04:50:46;;;;;;;1.98;1.00;;;10.80;99.90;;;;;;5110250;28;20036;-87
2023/11/06 04:53:12;;;;;;;3.03;0.93;;;10.80;99.90;;;;;;5095858;28;20028;-88
2023/11/06 04:55:37;;;;;;;2.85;0.80;;;10.80;99.90;;;;;;5076321;28;20032;-88
2023/11/06 04:58:05;;;;;;;4.70;1.08;;;10.80;99.90;;;;;;5090626;28;20025;-89
2023/11/06 05:00:31;;;;;;;1.65;0.82;;;10.80;99.90;;;;;;5073570;28;20044;-88
2023/11/06 05:02:57;;;;;;;1.73;0.80;;;10.80;99.90;;;;;;5074605;28;20435;-88
2023/11/06 05:05:22;;;;;;;3.63;0.93;;;10.70;99.90;;;;;;5084853;28;20032;-87
2023/11/06 05:07:48;;;;;;;2.13;0.60;;;10.70;99.90;;;;;;5093755;28;20020;-87
2023/11/06 05:10:14;;;;;;;1.30;0.70;;;10.70;99.90;;;;;;5094023;28;20051;-87
2023/11/06 05:12:43;;;;;;;2.85;0.80;;;10.70;99.90;;;;;;5073218;28;20062;-87
2023/11/06 05:15:11;;;;;;;2.63;1.02;;;10.70;99.90;;;;;;5077661;28;20029;-87
2023/11/06 05:17:37;;;;;;;3.25;0.82;;;10.70;99.90;;;;;;5073294;28;20376;-87
2023/11/06 05:20:45;;;;;;;;;;;;;;;;;;;;;
2023/11/06 05:23:11;;;;;;;2.38;0.70;;;10.60;99.90;;;;;;5081050;28;20031;-88
2023/11/06 05:25:37;;;;;;;2.75;0.90;;;10.70;99.90;;;;;;5073082;28;20017;-87
2023/11/06 05:28:04;;;;;;;3.95;0.85;;;10.60;99.90;;;;;;5075328;28;20037;-87
2023/11/06 05:30:30;;;;;;;1.48;0.68;;;10.70;99.90;;;;;;5073876;28;20035;-88
2023/11/06 05:32:57;;;;;;;2.47;0.85;;;10.60;99.90;;;;;;5081662;28;20024;-87
2023/11/06 05:35:23;;;;;;;2.47;0.60;;;10.60;99.90;;;;;;5093058;28;20024;-87
2023/11/06 05:37:49;;;;;;;1.85;0.75;;;10.60;99.90;;;;;;5072562;28;20131;-86
2023/11/06 05:40:15;;;;;;;5.38;0.73;;;10.70;99.90;;;;;;5072513;28;20059;-87
2023/11/06 05:42:40;;;;;;;4.68;0.80;;;10.60;99.90;;;;;;5076004;28;20051;-87
2023/11/06 05:45:12;;;;;;;1.85;0.60;;;10.60;99.90;;;;;;5072874;28;20464;-87
2023/11/06 05:47:37;;;;;;;2.53;0.80;;;10.60;99.90;;;;;;5092122;28;20035;-87
2023/11/06 05:50:04;;;;;;;5.93;1.48;;;10.60;99.90;;;;;;5078131;28;20032;-87
2023/11/06 05:52:30;;;;;;;3.08;0.90;;;10.60;99.90;;;;;;5072718;28;20107;-87
2023/11/06 05:54:58;;;;;;;3.35;0.98;;;10.60;99.90;;;;;;5075634;28;20077;-88
2023/11/06 05:57:23;;;;;;;2.28;0.95;;;10.60;99.90;;;;;;5092955;28;20046;-86
2023/11/06 05:59:49;;;;;;;2.05;1.00;;;10.60;99.90;;;;;;5080315;28;20021;-88
2023/11/06 06:02:14;;;;;;;2.95;0.85;;;10.60;99.90;;;;;;5078551;28;20036;-87
2023/11/06 06:04:40;;;;;;;4.43;1.35;;;10.60;99.90;;;;;;5097245;28;20379;-87
2023/11/06 06:07:07;;;;;;;4.10;1.05;;;10.60;99.90;;;;;;5096880;28;20066;-87
2023/11/06 06:09:32;;;;;;;2.67;1.17;;;10.60;99.90;;;;;;5098462;28;20060;-87
2023/11/06 06:11:59;;;;;;;4.75;1.40;;;10.60;99.90;;;;;;5098671;28;20101;-88
2023/11/06 06:14:24;;;;;;;4.07;1.25;;;10.60;99.90;;;;;;5068798;28;20017;-90
2023/11/06 06:16:50;;;;;;;4.20;1.33;;;10.60;99.90;;;;;;5084181;28;20027;-85
2023/11/06 06:19:17;;;;;;;5.20;1.50;;;10.60;99.90;;;;;;5084477;28;20012;-91
2023/11/06 06:21:43;;;;;;;3.63;1.40;;;10.70;99.90;;;;;;5118426;28;20008;-85
2023/11/06 06:24:09;;;;;;;4.07;1.10;;;10.60;99.90;;;;;;5110548;28;20028;-87
2023/11/06 06:26:36;;;;;;;4.47;1.63;;;10.60;99.90;;;;;;5077412;28;20082;-87
2023/11/06 06:29:05;;;;;;;3.92;1.30;;;10.60;99.90;;;;;;5095385;28;20022;-87
2023/11/06 06:31:31;;;;;;;7.07;2.03;;;10.70;99.90;;;;;;5096495;28;20032;-87
2023/11/06 06:33:58;;;;;;;5.18;1.95;;;10.70;99.90;;;;;;5097715;28;20028;-86
2023/11/06 06:36:24;;;;;;;7.55;2.10;;;10.70;99.90;;;;;;5090750;28;20031;-87
2023/11/06 06:38:50;;;;;;;5.53;1.58;;;10.70;99.90;;;;;;5096202;28;20035;-87
2023/11/06 06:41:16;;;;;;;6.28;1.95;;;10.70;99.90;;;;;;5079154;28;20082;-90
2023/11/06 06:43:42;;;;;;;6.63;2.00;;;10.70;99.90;;;;;;5076037;28;20024;-87
2023/11/06 06:46:09;;;;;;;6.63;2.05;;;10.70;99.90;;;;;;5083777;28;20058;-87
2023/11/06 06:48:37;;;;;;;4.97;1.67;;;10.70;99.90;;;;;;5095464;28;20130;-87
2023/11/06 06:51:04;;;;;;;6.03;1.90;;;10.70;99.90;;;;;;5079827;28;20024;-87
2023/11/06 06:53:29;;;;;;;4.55;1.63;;;10.70;99.90;;;;;;5068231;28;20082;-87
2023/11/06 06:55:55;;;;;;;4.10;1.70;;;10.70;99.90;;;;;;5090229;28;20032;-87
2023/11/06 06:58:23;;;;;;;4.60;1.75;;;10.80;99.90;;;;;;5096034;28;20028;-87
2023/11/06 07:00:49;;;;;;;4.72;2.00;;;10.80;99.90;;;;;;5095679;28;20032;-87
2023/11/06 07:03:15;;;;;;;5.93;1.85;;;10.80;99.90;;;;;;5095694;28;20482;-86
2023/11/06 07:05:41;;;;;;;6.15;2.03;;;10.80;99.90;;;;;;5091732;28;20438;-87
2023/11/06 07:08:07;;;;;;;6.13;2.03;;;10.80;99.90;;;;;;5076403;28;20059;-87
2023/11/06 07:10:33;;;;;;;6.60;1.83;;;10.80;99.90;;;;;;5092504;28;20056;-87
2023/11/06 07:12:59;;;;;;;8.10;2.10;;;10.90;99.90;;;;;;5087027;28;20036;-86
2023/11/06 07:15:28;;;;;;;4.68;1.67;;;10.90;99.90;;;;;;5096509;28;20020;-86
2023/11/06 07:17:56;;;;;;;4.97;2.22;;;10.90;99.90;;;;;;5097096;28;20074;-87
2023/11/06 07:20:22;;;;;;;4.28;1.83;;;10.90;99.90;;;;;;5094518;28;20028;-87
2023/11/06 07:22:49;;;;;;;3.95;1.60;;;10.90;99.90;;;;;;5078736;28;20025;-87
2023/11/06 07:25:16;;;;;;;6.93;2.38;;;10.90;99.90;;;;;;5066376;28;20114;-88
2023/11/06 07:27:43;;;;;;;3.10;1.58;;;10.90;99.90;;;;;;5095334;28;20081;-86
2023/11/06 07:30:10;;;;;;;7.00;1.70;;;10.90;99.90;;;;;;5094759;28;20467;-86
2023/11/06 07:32:39;;;;;;;7.05;1.88;;;10.90;99.90;;;;;;5095769;28;20028;-87
2023/11/06 07:35:05;;;;;;;5.78;1.90;;;10.90;99.90;;;;;;5069548;28;20075;-88
2023/11/06 07:37:30;;;;;;;6.07;1.77;;;10.90;99.90;;;;;;5068372;28;20484;-86
2023/11/06 07:39:57;;;;;;;6.30;1.75;;;10.90;99.90;;;;;;5074937;28;20024;-86
2023/11/06 07:42:23;;;;;;;8.05;1.90;;;10.90;99.90;;;;;;5080513;28;20016;-89
2023/11/06 07:44:48;;;;;;;5.00;1.83;;;11.00;99.90;;;;;;5078731;28;20039;-87
2023/11/06 07:47:14;;;;;;;4.25;1.60;;;10.90;99.90;;;;;;5089424;28;20457;-87
2023/11/06 07:49:42;;;;;;;6.95;1.85;;;10.90;99.90;;;;;;5097817;28;20094;-85
2023/11/06 07:52:09;;;;;;;4.05;1.73;;;11.00;99.90;;;;;;5099856;28;20020;-86
2023/11/06 07:54:41;;;;;;;6.25;1.63;;;10.90;99.90;;;;;;5099183;28;20039;-87
2023/11/06 07:57:09;;;;;;;8.60;1.92;;;10.90;99.90;;;;;;5101896;28;20004;-87
2023/11/06 07:59:39;;;;;;;7.53;1.80;;;10.90;99.90;;;;;;5096247;28;20021;-86
2023/11/06 08:02:08;;;;;;;5.30;1.65;;;10.90;99.90;;;;;;5084490;28;20036;-86
2023/11/06 08:04:33;;;;;;;6.50;1.73;;;10.90;99.90;;;;;;5058076;28;20033;-86
2023/11/06 08:06:59;;;;;;;4.97;1.80;;;10.90;99.90;;;;;;5091584;28;20030;-86
2023/11/06 08:09:27;;;;;;;4.15;1.60;;;10.90;99.90;;;;;;5077081;28;20024;-86
2023/11/06 08:11:53;;;;;;;5.93;1.40;;;10.90;99.90;;;;;;5077610;28;20506;-86
2023/11/06 08:14:19;;;;;;;7.07;1.60;;;11.00;99.90;;;;;;5094446;28;20028;-87
2023/11/06 08:16:44;;;;;;;5.60;1.58;;;11.00;99.90;;;;;;5094191;28;20016;-86
2023/11/06 08:19:10;;;;;;;6.13;1.83;;;10.90;99.90;;;;;;5077248;28;20024;-85
2023/11/06 08:21:36;;;;;;;4.72;1.50;;;11.00;99.90;;;;;;5076003;28;20040;-87
2023/11/06 08:24:02;;;;;;;5.82;1.50;;;11.00;99.90;;;;;;5094276;28;20025;-87
2023/11/06 08:26:28;;;;;;;3.90;1.58;;;11.00;99.90;;;;;;5077092;28;20021;-86
2023/11/06 08:28:54;;;;;;;6.55;1.88;;;11.00;99.90;;;;;;5093819;28;20021;-86
2023/11/06 08:31:19;;;;;;;4.47;1.40;;;11.00;99.90;;;;;;5094002;28;20051;-87
2023/11/06 08:33:45;;;;;;;6.38;1.65;;;11.00;99.90;;;;;;5093597;28;20472;-87
2023/11/06 08:36:10;;;;;;;5.72;1.45;;;11.10;99.90;;;;;;5094968;28;20032;-86
2023/11/06 08:38:36;;;;;;;5.47;1.55;;;11.10;99.90;;;;;;5093450;28;20032;-87
2023/11/06 08:41:07;;;;;;;8.70;1.75;;;11.10;99.90;;;;;;5075089;28;20025;-87
2023/11/06 08:43:33;;;;;;;10.20;2.03;;;11.10;99.90;;;;;;5074590;28;20111;-86
2023/11/06 08:46:00;;;;;;;8.55;2.45;;;11.20;99.90;;;;;;5056462;28;20035;-86
2023/11/06 08:48:26;;;;;;;6.55;1.75;;;11.20;99.90;;;;;;5073126;28;20431;-85
2023/11/06 08:50:52;;;;;;;4.68;1.60;;;11.30;99.90;;;;;;5089513;28;20032;-85
2023/11/06 08:53:18;;;;;;;4.80;1.77;;;11.30;99.90;;;;;;5093701;28;20414;-86
2023/11/06 08:55:44;;;;;;;6.40;1.45;;;11.40;99.90;;;;;;5093384;28;20016;-86
2023/11/06 08:58:16;;;;;;;4.57;1.42;;;11.40;99.90;;;;;;5080168;28;20122;-86
2023/11/06 09:00:43;;;;;;;;;;;11.50;99.90;;;;;;5074410;28;20472;-86
2023/11/06 09:03:13;;;;;;;7.75;1.75;;;11.50;99.90;;;;;;5086810;28;20016;-87
2023/11/06 09:05:41;;;;;;;8.82;2.63;;;11.60;99.90;;;;;;5056821;28;20127;-86
2023/11/06 09:08:07;;;;;;;6.72;1.70;;;11.60;99.90;;;;;;5075145;28;20077;-86
2023/11/06 09:10:34;;;;;;;8.25;2.10;;;11.70;99.90;;;;;;5093238;28;20099;-88
2023/11/06 09:13:03;;;;;;;10.27;2.53;;;11.70;99.90;;;;;;5076496;28;20360;-87
2023/11/06 09:15:28;;;;;;;10.85;2.53;;;11.80;99.90;;;;;;5093318;28;20186;-87
2023/11/06 09:17:54;;;;;;;8.60;2.17;;;11.80;99.90;;;;;;5075455;28;20046;-86
2023/11/06 09:20:20;;;;;;;3.90;1.85;;;11.80;99.90;;;;;;5093788;28;20482;-86
2023/11/06 09:22:46;;;;;;;5.28;1.70;;;11.80;99.90;;;;;;5104809;28;20019;-88
2023/11/06 09:25:13;;;;;;;8.57;1.73;;;11.80;99.90;;;;;;5118683;28;20009;-86
2023/11/06 09:27:41;;;;;;;8.63;1.98;;;11.80;99.90;;;;;;5117452;28;20016;-87
2023/11/06 09:30:09;;;;;;;8.05;2.38;;;11.90;99.90;;;;;;5117742;28;20012;-86
2023/11/06 09:32:37;;;;;;;6.00;1.85;;;11.90;99.90;;;;;;5109764;28;20064;-86
2023/11/06 09:35:03;;;;;;;8.93;1.85;;;11.90;99.90;;;;;;5076874;28;20028;-86
2023/11/06 09:37:32;;;;;;;10.70;2.50;;;11.90;99.90;;;;;;5076809;28;20060;-86
2023/11/06 09:40:00;;;;;;;9.13;2.22;;;11.90;99.90;;;;;;5088469;28;20120;-87
2023/11/06 09:42:26;;;;;;;8.73;1.95;;;11.90;99.90;;;;;;5070273;28;20082;-86
2023/11/06 09:44:52;;;;;;;8.18;1.85;;;11.90;99.90;;;;;;5072612;28;20028;-86
2023/11/06 09:47:17;;;;;;;7.32;2.00;;;11.90;99.90;;;;;;5056297;28;20384;-86
2023/11/06 09:50:04;;;;;;;8.25;2.05;;;12.00;99.90;;;;;;5079883;28;20108;-86
2023/11/06 09:52:32;;;;;;;6.63;1.67;;;12.00;99.90;;;;;;5075052;28;20093;-87
2023/11/06 09:54:58;;;;;;;12.10;2.60;;;12.10;99.90;;;;;;5079365;28;20032;-86
2023/11/06 09:57:25;;;;;;;8.73;2.17;;;12.20;99.90;;;;;;5092630;28;20024;-86
2023/11/06 09:59:50;;;;;;;6.60;1.70;;;12.20;99.90;;;;;;5092118;28;20032;-86
2023/11/06 10:02:21;;;;;;;7.60;1.98;;;12.20;99.90;;;;;;5075046;28;20388;-86
2023/11/06 10:04:46;;;;;;;8.63;2.50;;;12.20;99.90;;;;;;5076245;28;20368;-87
2023/11/06 10:07:12;;;;;;;7.13;2.03;;;12.20;99.90;;;;;;5089644;28;20290;-87
2023/11/06 10:09:39;;;;;;;11.38;3.03;;;12.20;99.90;;;;;;5063401;28;20032;-87
2023/11/06 10:12:16;;;;;;;6.72;2.22;;;12.20;99.90;;;;;;5075488;28;20491;-87
2023/11/06 10:14:42;;;;;;;7.55;1.90;;;12.20;99.90;;;;;;5093532;28;20062;-88
2023/11/06 10:17:07;;;;;;;7.63;1.83;;;12.20;99.90;;;;;;5092611;28;20056;-87
2023/11/06 10:19:35;;;;;;;6.93;2.22;;;12.20;99.90;;;;;;5064278;28;20119;-86
2023/11/06 10:22:14;;;;;;;5.57;2.55;;;12.20;99.90;;;;;;5071912;28;20052;-86
2023/11/06 10:24:50;;;;;;;7.13;2.05;;;12.30;99.90;;;;;;5081002;28;20016;-87
2023/11/06 10:27:33;;;;;;;7.60;2.53;;;12.30;99.90;;;;;;5075698;28;20039;-86
2023/11/06 10:30:09;;;;;;;7.35;2.38;;;12.30;99.90;;;;;;5075900;28;20489;-86
2023/11/06 10:32:35;;;;;;;8.00;2.60;;;12.40;99.90;;;;;;5086299;28;20027;-87
2023/11/06 10:35:02;;;;;;;6.25;2.28;;;12.40;99.90;;;;;;5069114;28;20028;-85
2023/11/06 10:37:28;;;;;;;6.20;1.77;;;12.40;99.90;;;;;;5092522;28;20039;-87
2023/11/06 10:39:56;;;;;;;6.57;2.20;;;12.40;99.90;;;;;;5075667;28;20468;-86
2023/11/06 10:42:23;;;;;;;9.05;2.13;;;12.40;99.90;;;;;;5092389;28;20103;-86
2023/11/06 10:44:59;;;;;;;7.85;2.42;;;12.50;99.90;;;;;;5095696;28;20028;-87
2023/11/06 10:47:36;;;;;;;7.03;2.25;;;12.50;99.90;;;;;;5079598;28;20340;-86
2023/11/06 10:50:07;;;;;;;8.20;2.60;;;12.50;99.90;;;;;;5096256;28;20036;-86
2023/11/06 10:52:34;;;;;;;4.18;1.48;;;12.50;99.90;;;;;;5075666;28;20457;-87
2023/11/06 10:55:03;;;;;;;8.70;2.40;;;12.60;99.90;;;;;;5064085;28;20037;-87
2023/11/06 10:57:33;;;;;;;8.18;2.15;;;12.60;99.90;;;;;;5077743;28;20476;-87
2023/11/06 11:00:22;;;;;;;8.25;2.35;;;12.70;99.90;;;;;;5101400;28;20066;-87
2023/11/06 11:02:52;;;;;;;6.13;1.80;;;12.70;99.90;;;;;;5101765;28;20020;-89
2023/11/06 11:05:23;;;;;;;9.68;2.05;;;12.80;99.90;;;;;;5087874;28;20012;-87
2023/11/06 11:07:50;;;;;;;;;;;12.80;99.90;;;;;;5121025;28;20036;-90
2023/11/06 11:10:19;;;;;;;7.10;2.03;;;12.80;99.90;;;;;;5095499;28;20382;-87
2023/11/06 11:12:49;;;;;;;8.10;2.60;;;12.80;99.90;;;;;;5076368;28;20033;-88
2023/11/06 11:15:22;;;;;;;6.80;1.98;;;12.80;99.90;;;;;;5096698;28;20020;-85
2023/11/06 11:18:09;;;;;;;9.73;2.30;;;12.90;99.90;;;;;;5079454;28;20028;-87
2023/11/06 11:20:57;;;;;;;6.43;2.38;;;12.90;99.90;;;;;;5095501;28;20077;-86
2023/11/06 11:23:39;;;;;;;8.70;2.25;;;12.90;99.90;;;;;;5078540;28;20031;-87
2023/11/06 11:26:09;;;;;;;8.00;2.00;;;12.90;99.90;;;;;;5095305;28;20028;-87
2023/11/06 11:28:58;;;;;;;6.50;2.00;;;12.90;99.90;;;;;;5094021;28;20048;-87
2023/11/06 11:31:44;;;;;;;7.28;1.70;;;12.90;99.90;;;;;;5075306;28;20072;-86
2023/11/06 11:34:35;;;;;;;6.95;1.90;;;12.90;99.90;;;;;;5090032;28;20032;-87
2023/11/06 11:37:27;;;;;;;7.53;2.22;;;12.90;99.90;;;;;;5094986;28;20406;-87
2023/11/06 11:39:56;;;;;;;9.30;2.28;;;12.90;99.90;;;;;;5094577;28;20031;-88
2023/11/06 11:42:22;;;;;;;6.13;2.00;;;12.90;99.90;;;;;;5078596;28;20038;-87
2023/11/06 11:45:08;;;;;;;7.63;2.58;;;12.90;99.90;;;;;;5095068;28;20020;-86
2023/11/06 11:47:46;;;;;;;6.80;1.70;;;12.90;99.90;;;;;;5094740;28;20085;-86
2023/11/06 11:50:41;;;;;;;6.88;2.28;;;12.90;99.90;;;;;;5094193;28;20032;-87
2023/11/06 11:53:08;;;;;;;5.00;1.95;;;13.00;99.90;;;;;;5072466;28;20043;-86
2023/11/06 11:55:34;;;;;;;5.72;1.95;;;13.00;99.90;;;;;;5094705;28;20024;-87
2023/11/06 11:58:01;;;;;;;8.93;2.13;;;12.90;99.90;;;;;;5081429;28;20026;-86
2023/11/06 12:00:27;;;;;;;9.55;2.25;;;13.00;99.90;;;;;;5076024;28;20357;-86
2023/11/06 12:03:14;;;;;;;6.60;1.90;;;13.00;99.90;;;;;;5064449;28;20081;-90
2023/11/06 12:05:41;;;;;;;7.05;2.13;;;13.00;99.90;;;;;;5094765;28;20426;-86
2023/11/06 12:08:15;;;;;;;6.68;1.70;;;13.00;99.90;;;;;;5074732;28;20052;-87
2023/11/06 12:10:44;;;;;;;7.55;2.10;;;13.00;99.90;;;;;;5074344;28;20051;-87
2023/11/06 12:13:22;;;;;;;6.28;1.88;;;13.00;99.90;;;;;;5077451;28;20024;-87
2023/11/06 12:15:49;;;;;;;7.22;1.80;;;13.10;99.90;;;;;;5094129;28;20016;-87
2023/11/06 12:18:21;;;;;;;8.30;2.25;;;13.10;99.90;;;;;;5093893;28;20028;-86
2023/11/06 12:20:57;;;;;;;8.07;2.17;;;13.10;99.90;;;;;;5094522;28;20020;-87
2023/11/06 12:23:33;;;;;;;7.03;1.90;;;13.10;99.90;;;;;;5094212;28;20020;-87
2023/11/06 12:26:12;;;;;;;5.78;1.90;;;13.10;99.90;;;;;;5093624;28;20200;-87
2023/11/06 12:28:56;;;;;;;6.70;1.70;;;13.10;99.90;;;;;;5095482;28;20012;-87
2023/11/06 12:31:23;;;;;;;6.32;1.58;;;13.10;99.90;;;;;;5077462;28;20028;-88
2023/11/06 12:33:49;;;;;;;6.38;1.60;;;13.10;99.90;;;;;;5074980;28;20115;-87
2023/11/06 12:36:26;;;;;;;9.50;2.50;;;13.10;99.90;;;;;;5076210;28;20047;-87
2023/11/06 12:38:51;;;;;;;7.55;2.05;;;13.10;99.90;;;;;;5098794;28;20013;-87
2023/11/06 12:41:38;;;;;;;4.93;1.67;;;13.10;99.90;;;;;;5094843;28;20027;-87
2023/11/06 12:44:08;;;;;;;6.05;1.80;;;13.10;99.90;;;;;;5098206;28;20005;-89
2023/11/06 12:46:45;;;;;;;6.53;1.70;;;13.20;99.90;;;;;;5095936;28;20039;-86
2023/11/06 12:49:11;;;;;;;6.57;2.17;;;13.20;99.90;;;;;;5093286;28;20409;-87
2023/11/06 12:51:36;;;;;;;4.93;2.00;;;13.20;99.90;;;;;;5076314;28;20040;-87
2023/11/06 12:54:09;;;;;;;7.50;2.25;;;13.20;99.90;;;;;;5074845;28;20044;-87